Time;durP1;ratioP1;P1;durP2;ratioP2;P2;SDS_P1;SDS_P2;PMS_P1;PMS_P2;Temp;Humidity;BMP_temperature;BMP_pressure;BME280_temperature;BME280_humidity;BME280_pressure;Samples;Min_cycle;Max_cycle;Signal;HPM_P1;HPM_P2
2021/03/13 00:03:26;;;;;;;10.52;5.22;;;5.30;99.90;;;;;;12596755;28;20361;-87
2021/03/13 00:09:28;;;;;;;10.18;5.30;;;5.20;99.90;;;;;;12613732;28;20048;-86
2021/03/13 00:15:31;;;;;;;10.88;5.00;;;5.30;99.90;;;;;;12585202;28;20073;-86
2021/03/13 00:21:32;;;;;;;10.65;5.20;;;5.20;99.90;;;;;;12596678;28;20084;-87
2021/03/13 00:27:46;;;;;;;10.35;4.25;;;5.20;99.90;;;;;;12586243;28;20072;-87
2021/03/13 00:33:49;;;;;;;;;;;5.40;99.90;;;;;;12593154;28;20161;-88
2021/03/13 00:39:50;;;;;;;10.45;4.20;;;5.30;99.90;;;;;;12601158;28;19924;-89
2021/03/13 00:45:52;;;;;;;12.43;4.32;;;5.30;99.90;;;;;;12604367;28;20040;-88
2021/03/13 00:51:53;;;;;;;11.38;4.65;;;5.20;99.90;;;;;;12592519;28;20461;-87
2021/03/13 00:57:54;;;;;;;11.98;4.80;;;5.30;99.90;;;;;;12583413;28;20040;-87
2021/03/13 01:04:11;;;;;;;8.23;4.53;;;5.30;99.90;;;;;;12594993;28;20040;-86
2021/03/13 01:10:30;;;;;;;8.60;4.30;;;5.30;99.90;;;;;;12592886;28;20130;-87
2021/03/13 01:16:31;;;;;;;16.45;5.38;;;5.20;99.90;;;;;;12612653;28;20078;-87
2021/03/13 01:22:34;;;;;;;9.02;4.30;;;5.30;99.90;;;;;;12612030;28;20040;-87
2021/03/13 01:28:35;;;;;;;13.57;4.63;;;5.30;99.90;;;;;;12594270;28;20044;-86
2021/03/13 01:34:36;;;;;;;9.88;4.50;;;5.30;99.90;;;;;;12583719;28;20043;-87
2021/03/13 01:40:39;;;;;;;8.77;4.05;;;5.20;99.90;;;;;;12592320;28;20563;-88
2021/03/13 01:46:41;;;;;;;9.82;4.18;;;5.20;99.90;;;;;;12601626;28;20044;-87
2021/03/13 01:52:42;;;;;;;7.72;3.67;;;5.20;99.90;;;;;;12600388;28;20040;-86
2021/03/13 01:58:44;;;;;;;9.50;3.67;;;5.20;99.90;;;;;;12602963;28;20056;-87
2021/03/13 02:04:54;;;;;;;7.85;3.70;;;5.20;99.90;;;;;;12602485;28;20076;-87
2021/03/13 02:10:58;;;;;;;8.23;3.22;;;5.10;99.90;;;;;;12590735;28;20702;-87
2021/03/13 02:17:24;;;;;;;8.93;3.53;;;5.30;99.90;;;;;;12592448;28;20040;-87
2021/03/13 02:23:27;;;;;;;11.15;3.22;;;5.40;99.90;;;;;;12587926;28;20052;-87
2021/03/13 02:29:40;;;;;;;9.65;3.10;;;5.40;99.90;;;;;;12596766;28;20051;-87
2021/03/13 02:35:44;;;;;;;10.93;3.13;;;5.50;99.90;;;;;;12603395;28;20123;-87
2021/03/13 02:41:50;;;;;;;14.07;3.15;;;5.40;99.90;;;;;;12596206;28;20131;-87
2021/03/13 02:47:53;;;;;;;12.65;3.08;;;5.50;99.90;;;;;;12603681;28;20080;-87
2021/03/13 02:53:57;;;;;;;9.18;3.05;;;5.50;99.90;;;;;;12616471;28;20049;-87
2021/03/13 02:59:59;;;;;;;14.07;2.85;;;5.50;99.90;;;;;;12597189;28;20133;-87
2021/03/13 03:06:01;;;;;;;9.27;3.25;;;5.40;99.90;;;;;;12598283;28;20051;-86
2021/03/13 03:12:03;;;;;;;11.50;2.47;;;5.40;99.90;;;;;;12599133;28;20048;-87
2021/03/13 03:18:13;;;;;;;6.65;2.30;;;5.40;99.90;;;;;;12604908;28;20131;-87
2021/03/13 03:24:15;;;;;;;11.10;3.10;;;5.40;99.90;;;;;;12601191;28;20044;-87
2021/03/13 03:30:19;;;;;;;9.75;2.63;;;5.40;99.90;;;;;;12597282;28;20108;-87
2021/03/13 03:36:20;;;;;;;10.48;2.90;;;5.50;99.90;;;;;;12610739;28;20116;-87
2021/03/13 03:42:22;;;;;;;12.85;2.40;;;5.50;99.90;;;;;;12600492;28;20606;-86
2021/03/13 03:48:24;;;;;;;7.30;2.38;;;5.50;99.90;;;;;;12597767;28;20100;-87
2021/03/13 03:54:26;;;;;;;9.05;2.38;;;5.50;99.90;;;;;;12600124;28;20098;-87
2021/03/13 04:00:28;;;;;;;6.65;2.03;;;5.50;99.90;;;;;;12587732;28;20494;-88
2021/03/13 04:06:32;;;;;;;4.53;2.08;;;5.50;99.90;;;;;;12599269;28;20100;-86
2021/03/13 04:12:36;;;;;;;4.70;2.17;;;5.30;99.90;;;;;;12597248;28;20100;-87
2021/03/13 04:18:39;;;;;;;3.55;1.98;;;5.30;99.90;;;;;;12613674;28;20310;-88
2021/03/13 04:24:42;;;;;;;6.63;2.40;;;5.10;99.90;;;;;;12599006;28;20044;-86
2021/03/13 04:30:43;;;;;;;6.43;2.10;;;5.10;99.90;;;;;;12598904;28;20377;-87
2021/03/13 04:36:54;;;;;;;5.88;2.80;;;5.00;99.90;;;;;;12595400;28;20867;-87
2021/03/13 04:42:56;;;;;;;4.25;2.03;;;4.90;99.90;;;;;;12593022;28;20488;-87
2021/03/13 04:48:58;;;;;;;3.55;1.95;;;4.90;99.90;;;;;;12593481;28;20515;-88
2021/03/13 04:54:59;;;;;;;2.95;2.03;;;4.90;99.90;;;;;;12592585;28;20052;-87
2021/03/13 05:01:00;;;;;;;3.20;1.98;;;4.90;99.90;;;;;;12600942;28;20068;-87
2021/03/13 05:07:15;;;;;;;;;;;4.80;99.90;;;;;;12587059;28;20146;-86
2021/03/13 05:13:16;;;;;;;2.92;1.50;;;4.80;99.90;;;;;;12601103;28;20643;-87
2021/03/13 05:19:18;;;;;;;4.50;1.98;;;4.80;99.90;;;;;;12608151;28;20147;-87
2021/03/13 05:25:20;;;;;;;2.50;1.65;;;4.80;99.90;;;;;;12603078;28;20118;-88
2021/03/13 05:31:22;;;;;;;3.65;1.70;;;4.80;99.90;;;;;;12600806;28;20089;-88
2021/03/13 05:37:35;;;;;;;2.80;1.63;;;4.80;99.90;;;;;;12606957;28;20096;-88
2021/03/13 05:43:38;;;;;;;1.85;1.45;;;4.80;99.90;;;;;;12618563;28;20480;-87
2021/03/13 05:49:44;;;;;;;2.95;1.90;;;4.80;99.90;;;;;;12604501;28;20126;-87
2021/03/13 05:55:45;;;;;;;3.00;1.65;;;4.90;99.90;;;;;;12601105;28;20093;-88
2021/03/13 06:01:47;;;;;;;2.30;1.70;;;4.80;99.90;;;;;;12601488;28;20071;-87
2021/03/13 06:07:59;;;;;;;2.72;1.58;;;4.80;99.90;;;;;;12598310;28;20965;-88
2021/03/13 06:14:00;;;;;;;2.65;1.60;;;4.80;99.90;;;;;;12591300;28;20621;-89
2021/03/13 06:20:02;;;;;;;3.65;1.65;;;4.90;99.90;;;;;;12600628;28;20039;-89
2021/03/13 06:26:04;;;;;;;1.67;1.17;;;4.90;99.90;;;;;;12601859;28;20063;-89
2021/03/13 06:32:07;;;;;;;1.90;1.20;;;5.00;99.90;;;;;;12595491;28;20040;-89
2021/03/13 06:38:25;;;;;;;2.00;1.13;;;5.00;99.90;;;;;;12601093;28;20094;-89
2021/03/13 06:44:26;;;;;;;1.73;1.10;;;5.10;99.90;;;;;;12594176;28;20476;-88
2021/03/13 06:50:31;;;;;;;1.75;0.95;;;5.10;99.90;;;;;;12612958;28;20070;-87
2021/03/13 06:56:51;;;;;;;1.73;0.90;;;5.20;99.90;;;;;;12594775;28;20075;-87
2021/03/13 07:03:12;;;;;;;3.08;0.93;;;5.30;99.90;;;;;;12617405;28;20389;-88
2021/03/13 07:09:13;;;;;;;0.70;0.50;;;5.40;99.90;;;;;;12602280;28;20055;-88
2021/03/13 07:15:17;;;;;;;0.90;0.57;;;5.40;99.90;;;;;;12601967;28;20537;-86
2021/03/13 07:21:20;;;;;;;0.80;0.50;;;5.40;99.90;;;;;;12598121;28;20058;-87
2021/03/13 07:27:25;;;;;;;1.40;0.50;;;5.50;99.90;;;;;;12601131;28;20095;-87
2021/03/13 07:33:28;;;;;;;1.25;0.50;;;5.50;99.90;;;;;;12570670;28;20040;-88
2021/03/13 07:39:41;;;;;;;1.17;0.50;;;5.60;99.90;;;;;;12591093;28;20051;-87
2021/03/13 07:45:46;;;;;;;2.03;0.45;;;5.80;99.90;;;;;;12606339;28;20067;-87
2021/03/13 07:51:48;;;;;;;0.60;0.40;;;5.90;99.90;;;;;;12604312;28;20075;-86
2021/03/13 07:57:50;;;;;;;1.08;0.40;;;6.00;99.90;;;;;;12613760;28;20983;-89
2021/03/13 08:03:52;;;;;;;0.70;0.35;;;6.10;99.90;;;;;;12597381;28;20044;-86
2021/03/13 08:09:54;;;;;;;1.35;0.60;;;6.10;99.90;;;;;;12609799;28;20083;-87
2021/03/13 08:16:12;;;;;;;0.75;0.30;;;6.20;99.90;;;;;;12612095;28;20047;-87
2021/03/13 08:22:22;;;;;;;0.60;0.40;;;6.30;99.90;;;;;;12596939;28;20043;-87
2021/03/13 08:28:49;;;;;;;1.08;0.40;;;6.40;99.90;;;;;;12588557;28;20671;-88
2021/03/13 08:34:50;;;;;;;0.95;0.30;;;6.50;99.90;;;;;;12609185;28;20073;-87
2021/03/13 08:40:53;;;;;;;0.73;0.35;;;6.50;99.90;;;;;;12606251;28;20079;-88
2021/03/13 08:46:57;;;;;;;0.90;0.60;;;6.50;99.90;;;;;;12599012;28;20479;-88
2021/03/13 08:53:28;;;;;;;1.85;0.40;;;6.50;99.90;;;;;;12596383;28;20036;-89
2021/03/13 08:59:29;;;;;;;1.48;0.47;;;6.00;99.90;;;;;;12593538;28;20089;-87
2021/03/13 09:05:32;;;;;;;4.88;0.60;;;5.80;99.90;;;;;;12590341;28;20036;-87
2021/03/13 09:11:36;;;;;;;1.35;0.40;;;6.10;99.90;;;;;;12595872;28;20162;-87
2021/03/13 09:17:38;;;;;;;1.70;0.40;;;6.10;99.90;;;;;;12589506;28;20093;-88
2021/03/13 09:23:41;;;;;;;3.70;0.50;;;6.30;99.90;;;;;;12596234;28;20068;-87
2021/03/13 09:29:43;;;;;;;1.42;0.65;;;6.40;99.90;;;;;;12595856;28;20077;-88
2021/03/13 09:35:44;;;;;;;5.97;1.10;;;6.40;99.90;;;;;;12594773;28;20078;-89
2021/03/13 09:42:05;;;;;;;4.70;1.20;;;6.60;99.90;;;;;;12593283;28;20036;-87
2021/03/13 09:48:07;;;;;;;6.15;1.40;;;6.70;99.90;;;;;;12592956;28;20104;-87
2021/03/13 09:54:08;;;;;;;5.43;1.02;;;6.90;99.90;;;;;;12592066;28;20098;-88
2021/03/13 10:00:10;;;;;;;8.73;1.65;;;7.00;99.90;;;;;;12611685;28;20060;-88
2021/03/13 10:06:12;;;;;;;6.45;1.48;;;7.10;99.90;;;;;;12599878;28;20078;-88
2021/03/13 10:12:13;;;;;;;6.38;1.45;;;7.30;99.90;;;;;;12595054;28;20044;-87
2021/03/13 10:18:17;;;;;;;3.28;1.33;;;7.40;99.90;;;;;;12603332;28;20135;-88
2021/03/13 10:24:19;;;;;;;8.95;1.95;;;7.30;99.90;;;;;;12620357;28;20404;-87
2021/03/13 10:30:26;;;;;;;5.63;1.23;;;7.40;99.90;;;;;;12600542;28;21274;-88
2021/03/13 10:36:48;;;;;;;6.15;1.40;;;7.50;99.90;;;;;;12597105;28;20425;-88
2021/03/13 10:42:49;;;;;;;4.75;1.67;;;7.40;99.90;;;;;;12620562;28;20089;-87
2021/03/13 10:48:53;;;;;;;8.02;1.48;;;7.30;99.90;;;;;;12604156;28;20415;-87
2021/03/13 10:54:56;;;;;;;4.23;1.23;;;7.30;99.90;;;;;;12595406;28;20476;-87
2021/03/13 11:01:12;;;;;;;7.68;1.70;;;7.40;99.90;;;;;;12575980;28;20052;-87
2021/03/13 11:07:15;;;;;;;6.45;1.63;;;7.80;99.90;;;;;;12595619;28;20526;-88
2021/03/13 11:13:17;;;;;;;6.68;1.90;;;8.00;99.90;;;;;;12598001;28;20083;-87
2021/03/13 11:19:19;;;;;;;6.78;1.80;;;8.00;99.90;;;;;;12602358;28;20079;-87
2021/03/13 11:25:20;;;;;;;4.32;1.45;;;7.80;99.90;;;;;;12597235;28;20040;-87
2021/03/13 11:31:21;;;;;;;5.25;1.42;;;7.70;99.90;;;;;;12604786;28;20116;-86
2021/03/13 11:37:23;;;;;;;1.95;0.50;;;7.20;99.90;;;;;;12575968;28;20177;-88
2021/03/13 11:43:24;;;;;;;3.05;0.60;;;5.70;99.90;;;;;;12593617;28;20056;-87
2021/03/13 11:49:26;;;;;;;3.28;0.47;;;5.30;99.90;;;;;;12606123;28;20123;-88
2021/03/13 11:55:27;;;;;;;3.55;0.73;;;4.80;99.90;;;;;;12597003;28;20047;-87
2021/03/13 12:01:29;;;;;;;5.90;0.88;;;4.70;99.90;;;;;;12591892;28;20060;-86
2021/03/13 12:07:30;;;;;;;9.13;1.55;;;5.00;99.90;;;;;;12595655;28;20040;-87
2021/03/13 12:13:31;;;;;;;5.53;1.00;;;5.40;99.90;;;;;;12606245;28;20551;-87
2021/03/13 12:19:33;;;;;;;4.55;0.80;;;6.20;99.90;;;;;;12601589;28;20048;-87
2021/03/13 12:25:35;;;;;;;6.32;1.20;;;6.50;99.90;;;;;;12603031;28;20097;-88
2021/03/13 12:31:36;;;;;;;5.55;1.48;;;7.30;99.90;;;;;;12599373;28;20127;-88
2021/03/13 12:37:39;;;;;;;4.78;1.40;;;7.50;99.90;;;;;;12581099;28;20156;-88
2021/03/13 12:43:41;;;;;;;7.60;1.63;;;8.10;99.90;;;;;;12593579;28;20156;-87
2021/03/13 12:49:42;;;;;;;7.10;1.65;;;8.20;99.90;;;;;;12588503;28;20051;-87
2021/03/13 12:55:44;;;;;;;5.57;1.60;;;8.50;99.90;;;;;;12596917;28;20044;-88
2021/03/13 13:01:45;;;;;;;5.53;1.92;;;9.10;99.90;;;;;;12591346;28;20071;-88
2021/03/13 13:07:47;;;;;;;7.78;1.40;;;8.90;99.90;;;;;;12588918;28;20449;-88
2021/03/13 13:13:48;;;;;;;4.97;1.63;;;8.50;99.90;;;;;;12575386;28;20096;-89
2021/03/13 13:19:49;;;;;;;7.05;2.25;;;8.50;99.90;;;;;;12601085;28;20041;-88
2021/03/13 13:25:52;;;;;;;5.25;1.40;;;7.80;99.90;;;;;;12608036;28;20499;-87
2021/03/13 13:31:53;;;;;;;7.47;1.98;;;7.80;99.90;;;;;;12611047;28;20044;-87
2021/03/13 13:37:55;;;;;;;7.78;1.65;;;7.60;99.90;;;;;;12603955;28;20130;-87
2021/03/13 13:43:56;;;;;;;8.57;2.00;;;7.70;99.90;;;;;;12601006;28;20485;-86
2021/03/13 13:49:58;;;;;;;6.40;1.45;;;7.80;99.90;;;;;;12611054;28;20098;-88
2021/03/13 13:55:59;;;;;;;7.72;1.55;;;7.40;99.90;;;;;;12605594;28;20672;-87
2021/03/13 14:02:00;;;;;;;6.30;1.20;;;7.10;99.90;;;;;;12597455;28;21260;-86
2021/03/13 14:08:03;;;;;;;3.47;1.00;;;7.40;99.90;;;;;;12623979;28;20534;-88
2021/03/13 14:14:04;;;;;;;6.70;0.90;;;7.60;99.90;;;;;;12602437;28;20123;-87
2021/03/13 14:20:06;;;;;;;15.43;2.22;;;7.20;99.90;;;;;;12607657;28;20135;-88
2021/03/13 14:26:08;;;;;;;43.25;6.97;;;6.90;99.90;;;;;;12606077;28;20138;-86
2021/03/13 14:32:09;;;;;;;8.52;1.73;;;6.70;99.90;;;;;;12599090;28;20155;-86
2021/03/13 14:38:11;;;;;;;5.25;1.27;;;6.60;99.90;;;;;;12599091;28;20071;-87
2021/03/13 14:44:25;;;;;;;9.70;1.98;;;6.70;99.90;;;;;;12604000;28;20044;-86
2021/03/13 14:50:27;;;;;;;16.23;2.08;;;6.80;99.90;;;;;;12624031;28;20568;-86
2021/03/13 14:56:28;;;;;;;3.95;1.20;;;7.00;99.90;;;;;;12607914;28;20075;-87
2021/03/13 15:02:29;;;;;;;17.17;2.90;;;6.90;99.90;;;;;;12592019;28;20084;-87
2021/03/13 15:08:32;;;;;;;4.50;1.48;;;7.20;99.90;;;;;;12593262;28;20653;-87
2021/03/13 15:14:50;;;;;;;3.35;1.45;;;7.20;99.90;;;;;;12601640;28;20048;-86
2021/03/13 15:20:51;;;;;;;8.65;1.55;;;6.80;99.90;;;;;;12601621;28;20044;-87
2021/03/13 15:26:53;;;;;;;7.85;1.73;;;6.80;99.90;;;;;;12606055;28;20070;-86
2021/03/13 15:32:54;;;;;;;7.07;1.63;;;6.60;99.90;;;;;;12596867;28;20035;-85
2021/03/13 15:38:57;;;;;;;5.72;2.28;;;6.50;99.90;;;;;;12599834;28;20040;-86
2021/03/13 15:45:10;;;;;;;8.90;1.75;;;6.50;99.90;;;;;;12594724;28;20047;-86
2021/03/13 15:51:12;;;;;;;8.40;2.05;;;6.40;99.90;;;;;;12596253;28;20074;-87
2021/03/13 15:57:13;;;;;;;5.43;1.25;;;6.30;99.90;;;;;;12602504;28;20181;-88
2021/03/13 16:03:14;;;;;;;6.82;1.52;;;6.00;99.90;;;;;;12595431;28;20068;-88
2021/03/13 16:09:16;;;;;;;4.78;1.27;;;5.70;99.90;;;;;;12602547;28;20474;-87
2021/03/13 16:15:31;;;;;;;4.28;1.00;;;5.80;99.90;;;;;;12643914;28;20061;-88
2021/03/13 16:21:33;;;;;;;4.20;0.90;;;5.80;99.90;;;;;;12662236;28;20064;-87
2021/03/13 16:27:34;;;;;;;3.25;0.60;;;5.70;99.90;;;;;;12662065;28;20027;-86
2021/03/13 16:33:37;;;;;;;4.78;1.20;;;5.50;99.90;;;;;;12655679;28;20050;-89
2021/03/13 16:39:41;;;;;;;6.70;0.85;;;5.50;99.90;;;;;;12611185;28;20048;-88
2021/03/13 16:45:53;;;;;;;6.35;1.40;;;5.60;99.90;;;;;;12598025;28;20044;-87
2021/03/13 16:51:55;;;;;;;2.55;0.93;;;5.80;99.90;;;;;;12577005;28;20071;-85
2021/03/13 16:57:56;;;;;;;3.47;1.08;;;5.40;99.90;;;;;;12610975;28;20104;-86
2021/03/13 17:03:58;;;;;;;4.63;0.90;;;5.30;99.90;;;;;;12607156;28;20036;-87
2021/03/13 17:10:00;;;;;;;1.35;0.60;;;5.20;99.90;;;;;;12609894;28;20256;-87
2021/03/13 17:16:20;;;;;;;2.20;0.70;;;5.30;99.90;;;;;;12619511;28;20051;-88
2021/03/13 17:22:22;;;;;;;4.45;0.88;;;5.30;99.90;;;;;;12630997;28;20085;-88
2021/03/13 17:28:23;;;;;;;4.35;0.65;;;5.30;99.90;;;;;;12616436;28;20108;-86
2021/03/13 17:34:24;;;;;;;2.40;0.75;;;5.20;99.90;;;;;;12609298;28;20040;-86
2021/03/13 17:40:26;;;;;;;1.95;0.73;;;5.20;99.90;;;;;;12606700;28;20043;-86
2021/03/13 17:46:39;;;;;;;2.38;0.57;;;5.30;99.90;;;;;;12629224;28;20396;-88
2021/03/13 17:52:41;;;;;;;2.53;0.90;;;5.30;99.90;;;;;;12607305;28;20036;-89
2021/03/13 17:58:43;;;;;;;1.50;0.60;;;5.20;99.90;;;;;;12615551;28;20056;-88
2021/03/13 18:04:45;;;;;;;1.58;0.63;;;5.20;99.90;;;;;;12632012;28;20100;-86
2021/03/13 18:10:46;;;;;;;2.70;0.60;;;5.20;99.90;;;;;;12614191;28;20115;-87
2021/03/13 18:17:02;;;;;;;6.50;0.90;;;5.50;99.90;;;;;;12613564;28;20071;-86
2021/03/13 18:23:04;;;;;;;3.97;0.73;;;5.60;99.90;;;;;;12607394;28;20040;-86
2021/03/13 18:29:06;;;;;;;3.33;0.80;;;5.50;99.90;;;;;;12601927;28;20718;-88
2021/03/13 18:35:09;;;;;;;4.75;0.82;;;5.40;99.90;;;;;;12622972;28;20059;-86
2021/03/13 18:41:10;;;;;;;3.88;0.60;;;5.00;99.90;;;;;;12598055;28;20040;-86
2021/03/13 18:47:27;;;;;;;1.52;0.70;;;4.90;99.90;;;;;;12595054;28;20516;-87
2021/03/13 18:53:29;;;;;;;2.70;1.10;;;4.90;99.90;;;;;;12593736;28;20036;-86
2021/03/13 18:59:30;;;;;;;1.40;0.70;;;4.70;99.90;;;;;;12606407;28;20119;-86
2021/03/13 19:05:32;;;;;;;4.47;1.10;;;4.70;99.90;;;;;;12586315;28;20040;-87
2021/03/13 19:11:34;;;;;;;1.42;0.88;;;4.60;99.90;;;;;;12601529;28;20127;-87
2021/03/13 19:17:48;;;;;;;3.97;1.13;;;4.60;99.90;;;;;;12603826;28;20131;-86
2021/03/13 19:23:50;;;;;;;4.45;1.05;;;4.60;99.90;;;;;;12600387;28;20040;-86
2021/03/13 19:29:51;;;;;;;5.25;0.90;;;4.60;99.90;;;;;;12591584;28;20098;-86
2021/03/13 19:35:53;;;;;;;4.93;0.90;;;4.60;99.90;;;;;;12575722;28;20039;-85
2021/03/13 19:41:55;;;;;;;8.52;1.30;;;4.70;99.90;;;;;;12586564;28;20100;-86
2021/03/13 19:48:12;;;;;;;4.63;0.93;;;4.80;99.90;;;;;;12582047;28;20127;-87
2021/03/13 19:54:14;;;;;;;1.63;0.60;;;4.90;99.90;;;;;;12589886;28;20040;-87
2021/03/13 20:00:16;;;;;;;2.78;0.55;;;5.00;99.90;;;;;;12591347;28;20465;-88
2021/03/13 20:06:18;;;;;;;3.33;0.50;;;5.00;99.90;;;;;;12588538;28;20139;-88
2021/03/13 20:12:19;;;;;;;3.47;1.05;;;5.00;99.90;;;;;;12592354;28;20044;-87
2021/03/13 20:18:34;;;;;;;5.22;1.10;;;4.80;99.90;;;;;;12589542;28;20420;-86
2021/03/13 20:24:35;;;;;;;4.28;1.02;;;4.70;99.90;;;;;;12586180;28;20113;-86
2021/03/13 20:30:36;;;;;;;6.60;1.05;;;4.60;99.90;;;;;;12566703;28;20463;-86
2021/03/13 20:36:38;;;;;;;3.40;0.75;;;4.70;99.90;;;;;;12578994;28;20048;-86
2021/03/13 20:42:40;;;;;;;3.35;0.82;;;4.60;99.90;;;;;;12575257;28;20048;-86
2021/03/13 20:48:56;;;;;;;3.60;0.80;;;4.50;99.90;;;;;;12604466;28;20484;-86
2021/03/13 20:55:00;;;;;;;3.35;0.80;;;4.40;99.90;;;;;;12596101;28;20040;-85
2021/03/13 21:01:02;;;;;;;4.18;1.00;;;4.40;99.90;;;;;;12594018;28;20671;-85
2021/03/13 21:07:09;;;;;;;4.68;0.77;;;4.50;99.90;;;;;;12591082;28;20173;-85
2021/03/13 21:13:10;;;;;;;4.03;0.75;;;4.50;99.90;;;;;;12590615;28;20173;-86
2021/03/13 21:19:20;;;;;;;8.32;2.80;;;4.50;99.90;;;;;;12593491;28;20048;-86
2021/03/13 21:25:21;;;;;;;4.90;1.00;;;4.30;99.90;;;;;;12616413;28;20941;-85
2021/03/13 21:31:22;;;;;;;3.65;0.85;;;4.30;99.90;;;;;;12593809;28;20367;-86
2021/03/13 21:37:24;;;;;;;3.30;0.80;;;4.30;99.90;;;;;;12593567;28;20056;-85
2021/03/13 21:43:25;;;;;;;4.78;1.20;;;4.20;99.90;;;;;;12576503;28;20100;-85
2021/03/13 21:49:41;;;;;;;8.15;1.05;;;4.20;99.90;;;;;;12596815;28;20048;-86
2021/03/13 21:55:43;;;;;;;4.60;1.25;;;4.20;99.90;;;;;;12584332;28;20112;-84
2021/03/13 22:01:45;;;;;;;4.43;1.10;;;4.30;99.90;;;;;;12604526;28;20181;-86
2021/03/13 22:07:46;;;;;;;6.03;1.17;;;4.30;99.90;;;;;;12605415;28;20509;-85
2021/03/13 22:13:47;;;;;;;3.72;1.38;;;4.50;99.90;;;;;;12583296;28;20483;-86
2021/03/13 22:20:07;;;;;;;6.30;1.20;;;4.60;99.90;;;;;;12598157;28;20044;-85
2021/03/13 22:26:09;;;;;;;4.85;1.33;;;4.80;99.90;;;;;;12604825;28;20803;-85
2021/03/13 22:32:10;;;;;;;5.05;1.30;;;4.80;99.90;;;;;;12595025;28;20044;-85
2021/03/13 22:38:12;;;;;;;3.35;1.13;;;4.80;99.90;;;;;;12601005;28;20094;-85
2021/03/13 22:44:24;;;;;;;8.25;1.20;;;4.80;99.90;;;;;;12605103;28;20036;-87
2021/03/13 22:50:29;;;;;;;7.95;1.55;;;4.80;99.90;;;;;;12602525;28;20123;-85
2021/03/13 22:56:31;;;;;;;6.22;1.85;;;4.80;99.90;;;;;;12608414;28;20048;-86
2021/03/13 23:02:32;;;;;;;6.00;1.50;;;4.80;99.90;;;;;;12595137;28;20078;-84
2021/03/13 23:08:33;;;;;;;7.50;1.40;;;4.80;99.90;;;;;;12592996;28;20567;-85
2021/03/13 23:14:35;;;;;;;6.72;1.48;;;4.90;99.90;;;;;;12596602;28;20564;-86
2021/03/13 23:20:53;;;;;;;4.70;2.00;;;4.90;99.90;;;;;;12599903;28;20459;-87
2021/03/13 23:26:54;;;;;;;8.15;2.00;;;4.90;99.90;;;;;;12604336;28;20068;-85
2021/03/13 23:32:57;;;;;;;8.55;1.77;;;5.00;99.90;;;;;;12592064;28;20177;-85
2021/03/13 23:38:58;;;;;;;6.95;1.80;;;5.00;99.90;;;;;;12589505;28;20065;-85
2021/03/13 23:45:00;;;;;;;4.10;1.40;;;5.00;99.90;;;;;;12584679;28;20731;-85
2021/03/13 23:51:19;;;;;;;7.25;1.70;;;5.00;99.90;;;;;;12598636;28;20408;-85
2021/03/13 23:57:21;;;;;;;3.95;1.40;;;5.00;99.90;;;;;;12594551;28;20052;-85
